Time;durP1;ratioP1;P1;durP2;ratioP2;P2;SDS_P1;SDS_P2;PMS_P1;PMS_P2;Temp;Humidity;BMP_temperature;BMP_pressure;BME280_temperature;BME280_humidity;BME280_pressure;Samples;Min_cycle;Max_cycle;Signal;HPM_P1;HPM_P2
2022/11/05 00:17:12;;;;;;;0.40;0.38;;;;;;;4.43;100.00;101854.84;10456201;28;20076;-83
2022/11/05 00:27:36;;;;;;;0.70;0.50;;;;;;;5.04;100.00;101880.06;10449357;28;20066;-83
2022/11/05 00:32:40;;;;;;;0.82;0.65;;;;;;;5.37;100.00;101890.66;10439190;28;20132;-83
2022/11/05 00:37:42;;;;;;;0.60;0.60;;;;;;;5.34;100.00;101882.78;10428134;28;20068;-83
2022/11/05 00:53:49;;;;;;;0.52;0.50;;;;;;;5.07;100.00;101882.81;10415620;28;20045;-83
2022/11/05 00:58:51;;;;;;;0.30;0.30;;;;;;;4.90;100.00;101886.84;10442210;28;20038;-83
2022/11/05 01:03:52;;;;;;;0.10;0.10;;;;;;;4.89;100.00;101891.84;10451915;28;20120;-82
2022/11/05 01:08:54;;;;;;;1.42;0.90;;;;;;;4.98;100.00;101901.78;10457613;28;20055;-82
2022/11/05 01:13:56;;;;;;;0.75;0.50;;;;;;;5.14;100.00;101906.19;10473169;28;20060;-83
2022/11/05 01:18:57;;;;;;;0.47;0.43;;;;;;;5.33;100.00;101913.38;10437394;28;20053;-83
2022/11/05 01:24:00;;;;;;;0.52;0.28;;;;;;;5.47;100.00;101916.81;10451702;28;20497;-83
2022/11/05 01:29:01;;;;;;;0.95;0.47;;;;;;;5.68;100.00;101915.59;10451843;28;20377;-83
2022/11/05 01:34:03;;;;;;;0.40;0.30;;;;;;;5.75;100.00;101919.38;10465982;28;20029;-83
2022/11/05 01:39:04;;;;;;;0.40;0.40;;;;;;;5.82;100.00;101910.44;10459661;28;20096;-82
2022/11/05 01:44:46;;;;;;;0.20;0.17;;;;;;;5.92;100.00;101901.66;10441874;28;20080;-82
2022/11/05 01:49:48;;;;;;;0.40;0.32;;;;;;;5.83;100.00;101907.09;10472427;28;20084;-83
2022/11/05 01:54:50;;;;;;;0.30;0.25;;;;;;;5.66;100.00;101904.38;10447480;28;20128;-82
2022/11/05 01:59:58;;;;;;;0.50;0.43;;;;;;;5.35;100.00;101906.69;10438937;28;20133;-83
2022/11/05 02:05:05;;;;;;;0.80;0.38;;;;;;;5.40;100.00;101908.72;10460273;28;20096;-83
2022/11/05 02:10:09;;;;;;;0.47;0.45;;;;;;;5.27;100.00;101906.19;10469017;28;20045;-83
2022/11/05 02:15:13;;;;;;;0.00;0.00;;;;;;;4.98;100.00;101895.00;10452988;28;20124;-83
2022/11/05 02:20:27;;;;;;;0.00;0.00;;;;;;;4.87;100.00;101895.97;10456841;28;20079;-82
2022/11/05 02:26:07;;;;;;;0.10;0.10;;;;;;;4.75;100.00;101886.72;10474221;28;20045;-82
2022/11/05 02:31:23;;;;;;;0.00;0.00;;;;;;;4.75;100.00;101894.38;10443055;28;20104;-82
2022/11/05 02:36:24;;;;;;;0.47;0.40;;;;;;;4.85;100.00;101897.53;10466761;28;20076;-82
2022/11/05 02:41:46;;;;;;;0.30;0.30;;;;;;;4.79;100.00;101887.81;10444302;28;20037;-82
2022/11/05 02:47:06;;;;;;;2.72;0.50;;;;;;;4.53;100.00;101873.31;10454688;28;20083;-83
2022/11/05 02:52:22;;;;;;;0.00;0.00;;;;;;;4.29;100.00;101873.47;10461356;28;20539;-82
2022/11/05 02:57:28;;;;;;;0.10;0.10;;;;;;;4.30;100.00;101870.13;10453664;28;20040;-82
2022/11/05 03:02:30;;;;;;;1.00;0.20;;;;;;;4.53;100.00;101870.78;10442343;28;20075;-82
2022/11/05 03:07:41;;;;;;;0.00;0.00;;;;;;;4.62;100.00;101873.94;10457952;28;20044;-82
2022/11/05 03:13:15;;;;;;;0.08;0.08;;;;;;;4.51;100.00;101869.78;10460286;28;20132;-82
2022/11/05 03:18:43;;;;;;;1.27;0.55;;;;;;;4.03;100.00;101870.03;10443233;28;20044;-83
2022/11/05 03:23:55;;;;;;;0.17;0.17;;;;;;;4.24;100.00;101875.72;10464787;28;20515;-82
2022/11/05 03:29:11;;;;;;;0.20;0.10;;;;;;;4.23;100.00;101878.16;10458225;28;20455;-82
2022/11/05 03:34:18;;;;;;;0.05;0.05;;;;;;;4.42;100.00;101891.38;10468288;28;20112;-83
2022/11/05 03:39:28;;;;;;;0.93;0.65;;;;;;;4.47;100.00;101893.34;10459277;28;20128;-82
2022/11/05 03:44:34;;;;;;;0.32;0.32;;;;;;;4.42;100.00;101896.47;10446244;28;20036;-82
2022/11/05 03:49:47;;;;;;;0.52;0.43;;;;;;;4.37;100.00;101902.91;10432822;28;20592;-82
2022/11/05 03:54:49;;;;;;;0.10;0.10;;;;;;;4.51;100.00;101902.94;10448331;28;20121;-83
2022/11/05 03:59:51;;;;;;;0.45;0.30;;;;;;;4.53;100.00;101915.06;10447462;28;20118;-82
2022/11/05 04:04:53;;;;;;;0.43;0.30;;;;;;;4.43;100.00;101927.97;10439453;28;20060;-82
2022/11/05 04:15:16;;;;;;;;;;;;;;;4.35;100.00;101934.22;10463792;28;20061;-83
2022/11/05 04:25:37;;;;;;;0.13;0.13;;;;;;;3.92;100.00;101927.97;10455668;28;20098;-83
2022/11/05 04:30:39;;;;;;;0.20;0.15;;;;;;;3.87;100.00;101929.28;10452766;28;20457;-82
2022/11/05 04:35:48;;;;;;;0.38;0.20;;;;;;;3.75;100.00;101934.44;10464237;28;20559;-83
2022/11/05 04:40:49;;;;;;;0.40;0.20;;;;;;;3.65;100.00;101937.09;10439786;28;20056;-83
2022/11/05 04:45:54;;;;;;;0.45;0.40;;;;;;;3.61;100.00;101940.22;10441123;28;20584;-82
2022/11/05 04:50:56;;;;;;;0.20;0.20;;;;;;;3.67;100.00;101944.84;10446978;28;20084;-82
2022/11/05 04:56:13;;;;;;;0.70;0.17;;;;;;;3.72;100.00;101952.06;10438639;28;20474;-82
2022/11/05 05:01:17;;;;;;;0.65;0.30;;;;;;;3.69;100.00;101953.50;10451827;28;20548;-82
2022/11/05 05:06:20;;;;;;;0.30;0.30;;;;;;;3.55;100.00;101957.59;10451885;28;20218;-82
2022/11/05 05:11:21;;;;;;;0.70;0.50;;;;;;;3.38;100.00;101966.59;10451441;28;20492;-82
2022/11/05 05:16:26;;;;;;;1.02;0.65;;;;;;;3.50;100.00;101962.38;10460335;28;20080;-82
2022/11/05 05:21:40;;;;;;;1.77;1.25;;;;;;;3.47;100.00;101965.56;10451003;28;20049;-81
2022/11/05 05:26:43;;;;;;;0.52;0.38;;;;;;;3.58;100.00;101980.75;10483788;28;20072;-82
2022/11/05 05:31:46;;;;;;;1.05;0.60;;;;;;;3.45;100.00;101987.53;10451939;28;20048;-82
2022/11/05 05:36:48;;;;;;;1.13;0.50;;;;;;;3.45;100.00;101982.44;10447489;28;20088;-82
2022/11/05 05:41:50;;;;;;;1.00;0.68;;;;;;;3.39;100.00;101994.72;10459753;28;20045;-82
2022/11/05 05:46:52;;;;;;;0.30;0.22;;;;;;;3.46;100.00;101991.81;10447988;28;20045;-82
2022/11/05 05:51:55;;;;;;;0.20;0.20;;;;;;;3.38;100.00;102005.69;10443150;28;20478;-81
2022/11/05 05:56:57;;;;;;;1.13;0.60;;;;;;;3.32;100.00;102007.78;10440946;28;20103;-82
2022/11/05 06:01:59;;;;;;;0.43;0.40;;;;;;;3.25;100.00;102005.56;10444259;28;20080;-82
2022/11/05 06:07:01;;;;;;;12.32;0.82;;;;;;;3.10;100.00;102011.28;10439723;28;20048;-82
2022/11/05 06:12:03;;;;;;;0.40;0.20;;;;;;;3.27;100.00;102016.75;10454332;28;20051;-83
2022/11/05 06:17:06;;;;;;;2.58;0.70;;;;;;;3.31;100.00;102026.41;10460495;28;20051;-82
2022/11/05 06:22:07;;;;;;;1.67;1.08;;;;;;;3.16;100.00;102042.31;10451909;28;20581;-83
2022/11/05 06:27:09;;;;;;;0.15;0.15;;;;;;;3.15;100.00;102050.75;10452085;28;20128;-83
2022/11/05 06:32:10;;;;;;;0.50;0.38;;;;;;;3.01;100.00;102054.78;10458859;28;20234;-82
2022/11/05 06:37:12;;;;;;;0.10;0.10;;;;;;;2.96;100.00;102052.66;10465778;28;20466;-82
2022/11/05 06:42:14;;;;;;;0.20;0.15;;;;;;;3.09;100.00;102062.13;10443323;28;20123;-83
2022/11/05 06:47:20;;;;;;;2.13;0.70;;;;;;;2.97;100.00;102059.53;10468276;28;20041;-82
2022/11/05 06:52:21;;;;;;;1.17;0.77;;;;;;;2.97;100.00;102056.97;10457306;28;20083;-83
2022/11/05 06:57:23;;;;;;;0.30;0.30;;;;;;;3.11;100.00;102055.47;10443045;28;20480;-82
2022/11/05 07:02:24;;;;;;;0.10;0.10;;;;;;;3.12;100.00;102067.44;10458829;28;20074;-83
2022/11/05 07:07:26;;;;;;;1.77;0.43;;;;;;;3.25;100.00;102079.41;10430955;28;20044;-82
2022/11/05 07:12:30;;;;;;;0.20;0.20;;;;;;;3.30;100.00;102073.91;10413382;28;20068;-82
2022/11/05 07:17:32;;;;;;;1.05;0.63;;;;;;;3.29;100.00;102099.28;10432920;28;20457;-82
2022/11/05 07:22:34;;;;;;;0.57;0.55;;;;;;;3.46;100.00;102091.19;10436226;28;20040;-82
2022/11/05 07:27:39;;;;;;;1.45;0.70;;;;;;;3.68;100.00;102099.53;10432174;28;20052;-82
2022/11/05 07:32:41;;;;;;;1.50;0.90;;;;;;;3.96;100.00;102115.19;10438306;28;20140;-82
2022/11/05 07:37:44;;;;;;;0.32;0.32;;;;;;;4.07;100.00;102124.50;10441667;28;20102;-82
2022/11/05 07:42:48;;;;;;;0.60;0.50;;;;;;;4.27;100.00;102141.22;10439493;28;20111;-82
2022/11/05 07:47:55;;;;;;;0.47;0.30;;;;;;;4.49;100.00;102152.97;10444265;28;20041;-82
2022/11/05 07:53:09;;;;;;;0.73;0.57;;;;;;;5.03;100.00;102158.38;10441812;28;20500;-82
2022/11/05 07:58:11;;;;;;;0.73;0.55;;;;;;;5.61;100.00;102171.66;10449175;28;20103;-83
2022/11/05 08:03:15;;;;;;;0.30;0.30;;;;;;;6.18;100.00;102177.06;10442566;28;20065;-83
2022/11/05 08:08:18;;;;;;;0.45;0.45;;;;;;;6.52;100.00;102163.81;10483934;28;20041;-82
2022/11/05 08:13:20;;;;;;;0.38;0.38;;;;;;;6.38;100.00;102139.03;10455539;28;20064;-81
2022/11/05 08:18:22;;;;;;;0.82;0.75;;;;;;;6.72;100.00;102108.72;10442697;28;20056;-82
2022/11/05 08:23:24;;;;;;;0.68;0.43;;;;;;;7.08;100.00;102095.50;10433612;28;20128;-83
2022/11/05 08:28:26;;;;;;;11.45;1.00;;;;;;;7.16;100.00;102055.81;10429948;28;20468;-82
2022/11/05 08:33:30;;;;;;;1.30;0.45;;;;;;;7.55;100.00;102028.16;10426047;28;20444;-83
2022/11/05 08:38:32;;;;;;;10.25;2.33;;;;;;;7.51;100.00;102005.69;10428724;28;20041;-82
2022/11/05 08:43:33;;;;;;;1.05;0.70;;;;;;;7.50;100.00;101988.53;10424220;28;20132;-82
2022/11/05 08:48:35;;;;;;;0.43;0.43;;;;;;;7.28;100.00;101971.94;10427420;28;20427;-83
2022/11/05 08:53:36;;;;;;;0.68;0.68;;;;;;;7.08;100.00;101973.34;10438686;28;20075;-83
2022/11/05 08:58:38;;;;;;;0.88;0.70;;;;;;;7.15;100.00;101965.22;10439158;28;20124;-82
2022/11/05 09:03:39;;;;;;;1.17;0.95;;;;;;;7.10;100.00;101963.22;10449442;28;20127;-82
2022/11/05 09:08:41;;;;;;;0.65;0.65;;;;;;;7.16;100.00;101961.00;10441399;28;20464;-82
2022/11/05 09:13:43;;;;;;;0.82;0.70;;;;;;;7.33;100.00;101953.38;10455551;28;20039;-83
2022/11/05 09:18:44;;;;;;;2.05;0.80;;;;;;;7.29;100.00;101955.75;10452731;28;20128;-82
2022/11/05 09:23:46;;;;;;;0.82;0.63;;;;;;;7.41;100.00;101962.38;10466939;28;20055;-82
2022/11/05 09:28:48;;;;;;;4.28;0.82;;;;;;;7.60;100.00;101962.59;10438449;28;20128;-82
2022/11/05 09:33:49;;;;;;;1.73;0.90;;;;;;;7.80;100.00;101962.78;10453392;28;20055;-82
2022/11/05 09:38:51;;;;;;;6.13;1.38;;;;;;;7.87;100.00;101964.88;10446443;28;20044;-82
2022/11/05 09:43:58;;;;;;;0.65;0.65;;;;;;;8.03;100.00;101970.84;10417974;28;20140;-82
2022/11/05 09:49:04;;;;;;;0.80;0.75;;;;;;;7.89;100.00;101958.16;10429240;28;20076;-81
2022/11/05 09:54:06;;;;;;;0.52;0.45;;;;;;;8.40;100.00;101962.50;10417653;28;20132;-82
2022/11/05 09:59:21;;;;;;;1.08;0.90;;;;;;;9.07;100.00;101951.34;10439867;28;20116;-83
2022/11/05 10:04:24;;;;;;;2.60;1.02;;;;;;;10.14;100.00;101905.66;10450540;28;20466;-83
2022/11/05 10:09:33;;;;;;;1.17;0.85;;;;;;;9.74;100.00;101847.25;10454228;28;20049;-82
2022/11/05 10:14:41;;;;;;;0.65;0.38;;;;;;;10.54;100.00;101820.59;10450844;28;20037;-82
2022/11/05 10:19:48;;;;;;;0.95;0.55;;;;;;;10.82;100.00;101799.41;10456831;28;20079;-83
2022/11/05 10:24:51;;;;;;;1.15;0.65;;;;;;;10.72;100.00;101777.53;10456065;28;20480;-83
2022/11/05 10:29:53;;;;;;;0.95;0.90;;;;;;;10.71;100.00;101778.34;10451750;28;20397;-83
2022/11/05 10:34:57;;;;;;;0.50;0.45;;;;;;;11.41;100.00;101760.31;10458037;28;20076;-84
2022/11/05 10:39:59;;;;;;;0.68;0.60;;;;;;;10.61;100.00;101763.38;10465428;28;20569;-82
2022/11/05 10:45:22;;;;;;;1.13;0.55;;;;;;;10.94;100.00;101758.66;10444861;28;20044;-83
2022/11/05 10:50:27;;;;;;;2.97;0.50;;;;;;;10.86;100.00;101766.88;10448483;28;20471;-83
2022/11/05 10:55:33;;;;;;;1.30;1.20;;;;;;;11.46;100.00;101752.75;10452884;28;20049;-83
2022/11/05 11:00:35;;;;;;;1.33;0.63;;;;;;;11.81;100.00;101755.69;10491445;28;20033;-82
2022/11/05 11:05:39;;;;;;;1.77;0.60;;;;;;;12.25;100.00;101748.59;10439285;28;20037;-82
2022/11/05 11:10:53;;;;;;;0.90;0.65;;;;;;;11.43;100.00;101753.53;10458897;28;20059;-83
2022/11/05 11:16:19;;;;;;;0.55;0.35;;;;;;;11.36;100.00;101756.72;10424959;28;20120;-83
2022/11/05 11:21:22;;;;;;;1.17;0.98;;;;;;;10.95;100.00;101754.34;10419538;28;20381;-83
2022/11/05 11:26:30;;;;;;;0.38;0.38;;;;;;;10.84;100.00;101748.78;10423992;28;20047;-84
2022/11/05 11:31:37;;;;;;;0.82;0.43;;;;;;;10.65;100.00;101762.66;10439975;28;20144;-83
2022/11/05 11:36:44;;;;;;;0.85;0.38;;;;;;;10.63;100.00;101774.59;10433198;28;20041;-83
2022/11/05 11:41:51;;;;;;;1.17;0.65;;;;;;;10.40;100.00;101774.53;10438414;28;20041;-83
2022/11/05 11:46:57;;;;;;;0.65;0.47;;;;;;;10.41;100.00;101780.59;10441326;28;20052;-83
2022/11/05 11:52:03;;;;;;;0.28;0.28;;;;;;;10.34;100.00;101789.72;10435724;28;20045;-83
2022/11/05 11:57:29;;;;;;;0.40;0.40;;;;;;;10.33;100.00;101793.13;10434302;28;20090;-83
2022/11/05 12:02:43;;;;;;;0.82;0.52;;;;;;;10.36;100.00;101792.34;10450752;28;20080;-83
2022/11/05 12:07:56;;;;;;;0.70;0.70;;;;;;;10.39;100.00;101788.25;10436270;28;20069;-83
2022/11/05 12:13:17;;;;;;;1.95;0.30;;;;;;;10.39;100.00;101783.09;10410696;28;20500;-83
2022/11/05 12:18:46;;;;;;;0.60;0.60;;;;;;;10.45;100.00;101785.94;10440276;28;20041;-79
2022/11/05 12:24:07;;;;;;;0.52;0.35;;;;;;;10.42;100.00;101778.06;10462966;28;20136;-78
2022/11/05 12:29:28;;;;;;;1.33;0.73;;;;;;;10.44;100.00;101770.41;10437292;28;20037;-78
2022/11/05 12:35:04;;;;;;;2.08;0.93;;;;;;;10.32;100.00;101760.44;10465333;28;20075;-78
2022/11/05 12:40:13;;;;;;;2.47;1.20;;;;;;;10.20;100.00;101754.81;10439729;28;20095;-79
2022/11/05 12:45:28;;;;;;;1.73;0.82;;;;;;;10.14;100.00;101760.56;10432531;28;20497;-78
2022/11/05 12:51:11;;;;;;;0.77;0.30;;;;;;;10.16;100.00;101753.78;10418267;28;20077;-78
2022/11/05 12:56:29;;;;;;;1.10;0.93;;;;;;;10.15;100.00;101757.19;10415723;28;20046;-77
2022/11/05 13:01:35;;;;;;;0.15;0.15;;;;;;;10.23;100.00;101758.38;10455903;28;20051;-76
2022/11/05 13:06:45;;;;;;;0.43;0.40;;;;;;;10.13;100.00;101759.69;10470549;28;20067;-76
2022/11/05 13:12:05;;;;;;;0.95;0.68;;;;;;;10.19;100.00;101760.75;10465678;28;20068;-77
2022/11/05 13:17:13;;;;;;;1.33;0.38;;;;;;;10.04;100.00;101753.28;10463576;28;20056;-78
2022/11/05 13:22:37;;;;;;;0.95;0.47;;;;;;;10.09;100.00;101752.66;10462278;28;20139;-77
2022/11/05 13:28:19;;;;;;;1.00;0.63;;;;;;;10.07;100.00;101749.16;10464859;28;20112;-76
2022/11/05 13:33:26;;;;;;;0.70;0.38;;;;;;;9.98;100.00;101739.34;10464040;28;20476;-77
2022/11/05 13:50:55;;;;;;;0.85;0.80;;;;;;;9.80;100.00;101729.16;10462436;28;20037;-77
2022/11/05 13:56:18;;;;;;;1.65;0.90;;;;;;;9.79;100.00;101723.94;10478468;28;20037;-78
2022/11/05 14:01:43;;;;;;;1.67;1.15;;;;;;;9.73;100.00;101692.81;10479577;28;20072;-77
2022/11/05 14:06:49;;;;;;;0.38;0.38;;;;;;;9.66;100.00;101709.66;10469235;28;20488;-76
2022/11/05 14:12:22;;;;;;;2.08;0.63;;;;;;;9.69;100.00;101717.53;10469608;28;20453;-78
2022/11/05 14:17:55;;;;;;;0.65;0.60;;;;;;;9.64;100.00;101716.47;10468750;28;20041;-76
2022/11/05 14:23:24;;;;;;;1.02;0.47;;;;;;;9.60;100.00;101730.00;10468574;28;20053;-77
2022/11/05 14:28:35;;;;;;;1.65;1.08;;;;;;;9.56;100.00;101728.13;10464976;28;20405;-77
2022/11/05 14:33:38;;;;;;;0.70;0.45;;;;;;;9.49;100.00;101725.25;10467835;28;20052;-76
2022/11/05 14:38:49;;;;;;;1.33;0.57;;;;;;;9.49;100.00;101732.97;10465614;28;20471;-76
2022/11/05 14:44:00;;;;;;;2.80;2.15;;;;;;;9.44;100.00;101728.47;10465350;28;20049;-77
2022/11/05 14:49:01;;;;;;;0.43;0.28;;;;;;;9.40;100.00;101737.72;10465092;28;20065;-76
2022/11/05 14:54:27;;;;;;;2.42;1.38;;;;;;;9.43;100.00;101737.84;10465016;28;20041;-76
2022/11/05 14:59:30;;;;;;;1.98;0.68;;;;;;;9.48;100.00;101726.09;10466766;28;20096;-76
2022/11/05 15:04:39;;;;;;;0.40;0.30;;;;;;;9.39;100.00;101728.25;10498096;28;20052;-75
2022/11/05 15:09:43;;;;;;;1.35;0.60;;;;;;;9.33;100.00;101725.41;10504721;28;20114;-76
2022/11/05 15:14:54;;;;;;;0.57;0.40;;;;;;;9.29;100.00;101726.06;10504588;28;20076;-77
2022/11/05 15:20:08;;;;;;;0.30;0.30;;;;;;;9.17;100.00;101729.88;10487350;28;20087;-76
2022/11/05 15:25:20;;;;;;;0.38;0.20;;;;;;;9.09;100.00;101735.47;10504213;28;20049;-75
2022/11/05 15:30:22;;;;;;;2.47;1.50;;;;;;;8.99;100.00;101744.44;10504845;28;20550;-75
2022/11/05 15:35:26;;;;;;;1.30;0.75;;;;;;;8.95;100.00;101742.56;10504739;28;20044;-77
2022/11/05 15:40:30;;;;;;;0.08;0.08;;;;;;;8.92;100.00;101747.53;10464688;28;20381;-76
2022/11/05 15:45:35;;;;;;;0.10;0.10;;;;;;;8.79;100.00;101759.84;10462441;28;20053;-76
2022/11/05 15:50:37;;;;;;;0.65;0.55;;;;;;;8.81;100.00;101765.94;10460536;28;20049;-75
2022/11/05 15:55:48;;;;;;;2.08;0.43;;;;;;;8.93;100.00;101764.72;10461105;28;20064;-75
2022/11/05 16:00:50;;;;;;;0.80;0.28;;;;;;;8.82;100.00;101757.41;10461014;28;20551;-76
2022/11/05 16:05:52;;;;;;;0.88;0.73;;;;;;;8.80;100.00;101766.75;10461593;28;20048;-76
2022/11/05 16:10:57;;;;;;;1.38;0.70;;;;;;;8.85;100.00;101760.13;10476807;28;20040;-75
2022/11/05 16:16:01;;;;;;;1.00;0.90;;;;;;;8.77;100.00;101758.88;10459370;28;20500;-76
2022/11/05 16:21:10;;;;;;;0.90;0.57;;;;;;;8.78;100.00;101786.34;10460397;28;20045;-77
2022/11/05 16:26:30;;;;;;;0.33;0.33;;;;;;;8.68;100.00;101794.41;10454150;28;20592;-75
2022/11/05 16:31:54;;;;;;;2.30;0.82;;;;;;;8.65;100.00;101800.28;10418230;28;20501;-76
2022/11/05 16:36:57;;;;;;;0.80;0.63;;;;;;;8.72;100.00;101804.91;10483172;28;20048;-77
2022/11/05 16:41:59;;;;;;;0.17;0.17;;;;;;;8.67;100.00;101800.38;10464563;28;20045;-76
2022/11/05 16:47:00;;;;;;;24.75;1.45;;;;;;;8.68;100.00;101795.28;10457795;28;20071;-75
2022/11/05 16:52:07;;;;;;;0.40;0.25;;;;;;;8.67;100.00;101792.66;10457567;28;20098;-76
2022/11/05 16:57:25;;;;;;;0.77;0.65;;;;;;;8.71;100.00;101789.41;10458961;28;20068;-76
2022/11/05 17:02:27;;;;;;;0.35;0.22;;;;;;;8.66;100.00;101790.91;10417593;28;20041;-76
2022/11/05 17:07:30;;;;;;;0.75;0.60;;;;;;;8.55;100.00;101798.94;10417792;28;20511;-77
2022/11/05 17:12:37;;;;;;;0.52;0.47;;;;;;;8.60;100.00;101795.75;10416318;28;20056;-75
2022/11/05 17:17:39;;;;;;;0.75;0.60;;;;;;;8.52;100.00;101785.97;10467050;28;20124;-76
2022/11/05 17:22:40;;;;;;;0.63;0.52;;;;;;;8.63;100.00;101790.72;10499162;28;20052;-76
2022/11/05 17:27:42;;;;;;;0.60;0.50;;;;;;;8.56;100.00;101795.59;10498916;28;20403;-76
2022/11/05 17:32:43;;;;;;;0.20;0.20;;;;;;;8.63;100.00;101801.00;10498691;28;20535;-76
2022/11/05 17:37:45;;;;;;;6.50;0.88;;;;;;;8.69;100.00;101802.19;10497678;28;20044;-76
2022/11/05 17:42:48;;;;;;;0.98;0.40;;;;;;;8.68;100.00;101799.53;10515290;28;20051;-77
2022/11/05 17:47:49;;;;;;;0.38;0.38;;;;;;;8.77;100.00;101799.97;10520606;28;20080;-76
2022/11/05 17:52:51;;;;;;;0.43;0.30;;;;;;;8.83;100.00;101795.13;10468055;28;20076;-76
2022/11/05 17:57:52;;;;;;;1.88;0.28;;;;;;;8.86;100.00;101794.41;10458699;28;20112;-75
2022/11/05 18:02:54;;;;;;;0.70;0.60;;;;;;;8.94;100.00;101792.19;10459911;28;20041;-76
2022/11/05 18:07:56;;;;;;;0.32;0.30;;;;;;;8.88;100.00;101793.69;10466536;28;20551;-76
2022/11/05 18:14:06;;;;;;;0.30;0.30;;;;;;;9.01;100.00;101789.97;10460020;28;20442;-75
2022/11/05 18:19:07;;;;;;;0.20;0.13;;;;;;;9.09;100.00;101785.19;10440425;28;20041;-75
2022/11/05 18:24:09;;;;;;;0.28;0.28;;;;;;;9.11;100.00;101770.75;10421301;28;20476;-76
2022/11/05 18:29:11;;;;;;;0.38;0.38;;;;;;;9.16;100.00;101778.63;10416109;28;20120;-76
2022/11/05 18:34:12;;;;;;;0.15;0.15;;;;;;;9.14;100.00;101791.41;10414764;28;20084;-76
2022/11/05 18:39:14;;;;;;;0.38;0.20;;;;;;;9.13;100.00;101783.66;10414808;28;20053;-77
2022/11/05 18:44:16;;;;;;;1.58;0.93;;;;;;;9.14;100.00;101776.00;10418584;28;20446;-75
2022/11/05 18:49:17;;;;;;;0.30;0.30;;;;;;;9.24;100.00;101776.44;10457399;28;20083;-76
2022/11/05 18:54:19;;;;;;;0.28;0.28;;;;;;;9.24;100.00;101761.88;10501378;28;20087;-76
2022/11/05 18:59:21;;;;;;;0.38;0.20;;;;;;;9.33;100.00;101746.00;10504060;28;20488;-76
2022/11/05 19:04:38;;;;;;;0.40;0.40;;;;;;;9.27;100.00;101740.56;10473270;28;20044;-76
2022/11/05 19:09:39;;;;;;;0.80;0.35;;;;;;;9.27;100.00;101735.44;10463500;28;20071;-77
2022/11/05 19:14:43;;;;;;;0.40;0.15;;;;;;;9.24;100.00;101743.88;10461766;28;20124;-76
2022/11/05 19:19:44;;;;;;;1.98;0.57;;;;;;;9.12;100.00;101751.91;10463682;28;20087;-76
2022/11/05 19:24:46;;;;;;;0.57;0.45;;;;;;;9.16;100.00;101752.91;10462300;28;20060;-76
2022/11/05 19:29:48;;;;;;;0.10;0.10;;;;;;;9.19;100.00;101759.13;10461239;28;20087;-76
2022/11/05 19:34:49;;;;;;;1.08;0.50;;;;;;;9.33;100.00;101772.56;10462779;28;20481;-76
2022/11/05 19:39:51;;;;;;;2.92;0.28;;;;;;;9.29;100.00;101765.53;10461926;28;20045;-77
2022/11/05 19:44:52;;;;;;;0.45;0.32;;;;;;;9.28;100.00;101762.88;10462832;28;20500;-76
2022/11/05 19:49:54;;;;;;;0.82;0.65;;;;;;;9.19;100.00;101769.41;10460407;28;20079;-76
2022/11/05 19:54:56;;;;;;;0.20;0.20;;;;;;;9.24;100.00;101767.00;10460046;28;20091;-75
2022/11/05 19:59:57;;;;;;;0.22;0.22;;;;;;;9.25;100.00;101770.47;10461329;28;20477;-75
2022/11/05 20:04:59;;;;;;;0.63;0.30;;;;;;;9.28;100.00;101783.44;10461082;28;20134;-76
2022/11/05 20:10:00;;;;;;;0.85;0.75;;;;;;;9.28;100.00;101752.59;10461690;28;20477;-76
2022/11/05 20:15:02;;;;;;;0.20;0.20;;;;;;;9.20;100.00;101753.13;10478534;28;20091;-75
2022/11/05 20:20:06;;;;;;;0.30;0.30;;;;;;;9.24;100.00;101750.72;10465253;28;20037;-75
2022/11/05 20:25:09;;;;;;;0.47;0.38;;;;;;;9.20;100.00;101734.28;10421201;28;20037;-76
2022/11/05 20:30:10;;;;;;;0.22;0.22;;;;;;;9.19;100.00;101722.22;10432137;28;20397;-76
2022/11/05 20:35:12;;;;;;;0.40;0.20;;;;;;;9.13;100.00;101727.97;10417786;28;20087;-75
2022/11/05 20:40:14;;;;;;;0.30;0.30;;;;;;;9.14;100.00;101734.00;10416323;28;20045;-76
2022/11/05 20:45:16;;;;;;;0.38;0.30;;;;;;;9.14;100.00;101750.28;10416731;28;20500;-75
2022/11/05 20:50:17;;;;;;;2.67;0.43;;;;;;;9.12;100.00;101739.06;10417338;28;20038;-76
2022/11/05 21:02:19;;;;;;;0.80;0.63;;;;;;;9.07;100.00;101748.25;10430812;28;20064;-75
2022/11/05 21:07:21;;;;;;;2.00;0.50;;;;;;;9.07;100.00;101749.97;10437939;28;20120;-75
2022/11/05 21:12:22;;;;;;;0.15;0.15;;;;;;;9.07;100.00;101740.53;10416224;28;20042;-75
2022/11/05 21:17:24;;;;;;;1.40;0.63;;;;;;;9.04;100.00;101727.56;10418221;28;20239;-75
2022/11/05 21:22:25;;;;;;;0.32;0.32;;;;;;;8.95;100.00;101715.16;10457436;28;20044;-75
2022/11/05 21:27:27;;;;;;;1.35;0.85;;;;;;;8.95;100.00;101711.72;10456747;28;20119;-75
2022/11/05 21:32:29;;;;;;;0.77;0.60;;;;;;;8.92;100.00;101722.75;10455568;28;20120;-75
2022/11/05 21:37:31;;;;;;;0.93;0.80;;;;;;;8.98;100.00;101722.13;10456668;28;20052;-76
2022/11/05 21:42:32;;;;;;;0.45;0.30;;;;;;;8.94;100.00;101715.09;10438554;28;20140;-75
2022/11/05 21:47:34;;;;;;;0.32;0.32;;;;;;;8.99;100.00;101721.31;10456641;28;20381;-75
2022/11/05 22:03:18;;;;;;;1.50;0.50;;;;;;;8.73;100.00;101726.16;10456743;28;20091;-75
2022/11/05 22:08:19;;;;;;;0.52;0.43;;;;;;;8.68;100.00;101720.78;10455859;28;20033;-75
2022/11/05 22:13:21;;;;;;;0.68;0.55;;;;;;;8.78;100.00;101724.66;10456322;28;20041;-74
2022/11/05 22:18:22;;;;;;;1.58;0.68;;;;;;;8.70;100.00;101711.47;10459233;28;20083;-75
2022/11/05 22:23:24;;;;;;;0.63;0.55;;;;;;;8.62;100.00;101722.19;10463780;28;20087;-75
2022/11/05 22:28:25;;;;;;;0.98;0.30;;;;;;;8.62;100.00;101727.31;10433361;28;20511;-75
2022/11/05 22:33:27;;;;;;;1.80;0.25;;;;;;;8.62;100.00;101722.19;10457314;28;20479;-76
2022/11/05 22:38:29;;;;;;;0.32;0.17;;;;;;;8.66;100.00;101712.13;10488000;28;20488;-76
2022/11/05 22:43:31;;;;;;;1.17;0.45;;;;;;;8.57;100.00;101714.25;10462548;28;20064;-75
2022/11/05 22:48:34;;;;;;;1.08;0.70;;;;;;;8.59;100.00;101709.22;10462639;28;20037;-76
2022/11/05 22:53:37;;;;;;;0.43;0.30;;;;;;;8.45;100.00;101704.25;10436850;28;20073;-75
2022/11/05 22:58:38;;;;;;;0.45;0.20;;;;;;;8.41;100.00;101708.34;10420098;28;20045;-74
2022/11/05 23:03:42;;;;;;;1.42;0.70;;;;;;;8.44;100.00;101710.22;10452580;28;20045;-75
2022/11/05 23:14:06;;;;;;;3.15;0.85;;;;;;;8.29;100.00;101709.47;10419667;28;20049;-76
2022/11/05 23:24:28;;;;;;;0.10;0.10;;;;;;;8.15;100.00;101719.97;10420163;28;20064;-75
2022/11/05 23:29:30;;;;;;;3.67;1.15;;;;;;;8.06;100.00;101720.38;10450952;28;20141;-77
2022/11/05 23:34:32;;;;;;;0.38;0.30;;;;;;;8.10;100.00;101717.16;10443246;28;20053;-76
2022/11/05 23:39:33;;;;;;;2.13;1.58;;;;;;;8.09;100.00;101719.63;10459776;28;20060;-77
2022/11/05 23:50:03;;;;;;;0.30;0.20;;;;;;;8.04;100.00;101701.44;10458966;28;20123;-78
2022/11/05 23:55:05;;;;;;;1.08;0.80;;;;;;;8.02;100.00;101690.25;10459148;28;20051;-77
